createdAt,value
2023-01-02T00:00:05.449Z,964.84
2023-01-02T00:01:05.419Z,964.82
2023-01-02T00:02:05.436Z,964.83
2023-01-02T00:03:05.520Z,964.89
2023-01-02T00:04:05.401Z,964.94
2023-01-02T00:05:05.299Z,964.95
2023-01-02T00:06:05.415Z,964.92
2023-01-02T00:07:06.797Z,964.89
2023-01-02T00:08:05.308Z,964.9
2023-01-02T00:09:05.515Z,964.94
2023-01-02T00:10:05.367Z,964.95
2023-01-02T00:11:05.449Z,964.97
2023-01-02T00:12:05.408Z,964.9
2023-01-02T00:13:05.379Z,964.93
2023-01-02T00:14:05.318Z,964.87
2023-01-02T00:15:05.409Z,964.9
2023-01-02T00:17:05.547Z,964.87
2023-01-02T00:18:05.417Z,964.84
2023-01-02T00:19:05.326Z,964.83
2023-01-02T00:20:05.334Z,964.84
2023-01-02T00:21:05.530Z,964.75
2023-01-02T00:22:05.336Z,964.81
2023-01-02T00:23:05.465Z,964.84
2023-01-02T00:24:05.347Z,964.8
2023-01-02T00:26:05.472Z,964.81
2023-01-02T00:27:05.344Z,964.76
2023-01-02T00:28:05.498Z,964.83
2023-01-02T00:29:05.464Z,964.82
2023-01-02T00:31:07.176Z,964.73
2023-01-02T00:32:05.476Z,964.74
2023-01-02T00:33:05.438Z,964.77
2023-01-02T00:34:05.368Z,964.87
2023-01-02T00:35:05.477Z,964.82
2023-01-02T00:36:05.443Z,964.84
2023-01-02T00:37:06.691Z,964.8
2023-01-02T00:38:05.477Z,964.88
2023-01-02T00:39:05.448Z,964.87
2023-01-02T00:40:06.706Z,964.89
2023-01-02T00:42:05.483Z,964.9
2023-01-02T00:43:05.425Z,964.92
2023-01-02T00:44:05.508Z,964.91
2023-01-02T00:45:05.448Z,964.87
2023-01-02T00:46:11.077Z,964.88
2023-01-02T00:47:05.685Z,964.91
2023-01-02T00:48:05.388Z,964.88
2023-01-02T00:49:05.548Z,964.82
2023-01-02T00:50:05.486Z,964.77
2023-01-02T00:52:05.529Z,964.85
2023-01-02T00:53:05.489Z,964.84
2023-01-02T00:54:05.419Z,964.77
2023-01-02T00:55:05.420Z,964.74
2023-01-02T00:56:05.498Z,964.77
2023-01-02T00:57:05.462Z,964.79
2023-01-02T00:58:05.426Z,964.77
2023-01-02T00:59:05.423Z,964.67
2023-01-02T01:00:05.430Z,964.62
2023-01-02T01:01:05.560Z,964.6
2023-01-02T01:02:05.563Z,964.64
2023-01-02T01:03:06.884Z,964.61
2023-01-02T01:05:05.569Z,964.54
2023-01-02T01:07:05.454Z,964.55
2023-01-02T01:08:05.520Z,964.54
2023-01-02T01:12:05.503Z,964.51
2023-01-02T01:13:05.573Z,964.52
2023-01-02T01:14:05.522Z,964.53
2023-01-02T01:15:05.449Z,964.5
2023-01-02T01:16:05.513Z,964.55
2023-01-02T01:17:05.518Z,964.56
2023-01-02T01:18:06.911Z,964.52
2023-01-02T01:19:05.565Z,964.55
2023-01-02T01:20:05.631Z,964.53
2023-01-02T01:21:05.632Z,964.54
2023-01-02T01:22:05.575Z,964.55
2023-01-02T01:23:05.538Z,964.5
2023-01-02T01:24:05.487Z,964.53
2023-01-02T01:25:05.574Z,964.5
2023-01-02T01:27:05.621Z,964.45
2023-01-02T01:28:05.498Z,964.48
2023-01-02T01:29:05.647Z,964.47
2023-01-02T01:30:05.490Z,964.43
2023-01-02T01:32:05.495Z,964.46
2023-01-02T01:34:05.591Z,964.44
2023-01-02T01:35:06.995Z,964.46
2023-01-02T01:36:05.511Z,964.49
2023-01-02T01:38:05.552Z,964.5
2023-01-02T01:39:05.636Z,964.48
2023-01-02T01:43:05.672Z,964.45
2023-01-02T01:45:05.636Z,964.46
2023-01-02T01:46:05.612Z,964.44
2023-01-02T01:47:05.531Z,964.42
2023-01-02T01:48:05.629Z,964.41
2023-01-02T01:49:05.535Z,964.45
2023-01-02T01:50:06.172Z,964.46
2023-01-02T01:51:05.636Z,964.44
2023-01-02T01:52:05.601Z,964.43
2023-01-02T01:53:05.677Z,964.46
2023-01-02T01:54:05.560Z,964.48
2023-01-02T01:55:05.605Z,964.49
2023-01-02T01:56:05.578Z,964.51
2023-01-02T01:57:05.641Z,964.54
2023-01-02T01:58:05.574Z,964.59
2023-01-02T01:59:05.564Z,964.61
2023-01-02T02:00:05.630Z,964.63
2023-01-02T02:01:05.638Z,964.62
2023-01-02T02:02:05.711Z,964.6
2023-01-02T02:03:05.708Z,964.61
2023-01-02T02:04:05.630Z,964.6
2023-01-02T02:05:05.601Z,964.55
2023-01-02T02:06:05.567Z,964.53
2023-01-02T02:07:05.585Z,964.48
2023-01-02T02:08:05.694Z,964.49
2023-01-02T02:09:05.664Z,964.46
2023-01-02T02:10:06.672Z,964.45
2023-01-02T02:11:05.713Z,964.43
2023-01-02T02:12:05.683Z,964.46
2023-01-02T02:13:05.585Z,964.48
2023-01-02T02:14:05.710Z,964.51
2023-01-02T02:16:05.806Z,964.52
2023-01-02T02:17:05.721Z,964.49
2023-01-02T02:18:05.696Z,964.5
2023-01-02T02:20:05.788Z,964.49
2023-01-02T02:21:05.704Z,964.51
2023-01-02T02:23:05.728Z,964.48
2023-01-02T02:24:05.699Z,964.49
2023-01-02T02:25:05.631Z,964.5
2023-01-02T02:26:05.744Z,964.49
2023-01-02T02:27:05.699Z,964.48
2023-01-02T02:28:05.630Z,964.47
2023-01-02T02:29:05.736Z,964.49
2023-01-02T02:30:05.692Z,964.48
2023-01-02T02:31:06.833Z,964.5
2023-01-02T02:32:05.859Z,964.43
2023-01-02T02:33:05.720Z,964.41
2023-01-02T02:34:05.776Z,964.44
2023-01-02T02:35:05.780Z,964.4
2023-01-02T02:36:05.647Z,964.34
2023-01-02T02:37:05.666Z,964.32
2023-01-02T02:38:05.757Z,964.31
2023-01-02T02:39:05.723Z,964.33
2023-01-02T02:40:05.792Z,964.35
2023-01-02T02:41:05.762Z,964.32
2023-01-02T02:42:07.245Z,964.33
2023-01-02T02:43:05.699Z,964.3
2023-01-02T02:44:05.747Z,964.33
2023-01-02T02:45:05.661Z,964.31
2023-01-02T02:46:05.707Z,964.3
2023-01-02T02:47:05.760Z,964.33
2023-01-02T02:50:05.856Z,964.37
2023-01-02T02:51:05.694Z,964.34
2023-01-02T02:52:05.795Z,964.33
2023-01-02T02:55:05.712Z,964.32
2023-01-02T02:56:05.772Z,964.3
2023-01-02T02:57:05.702Z,964.33
2023-01-02T02:58:05.806Z,964.27
2023-01-02T02:59:05.783Z,964.21
2023-01-02T03:00:05.729Z,964.14
2023-01-02T03:01:05.763Z,964.17
2023-01-02T03:02:05.916Z,964.22
2023-01-02T03:03:05.938Z,964.2
2023-01-02T03:04:05.815Z,964.11
2023-01-02T03:05:05.709Z,964.08
2023-01-02T03:06:05.727Z,964.09
2023-01-02T03:07:05.824Z,964.08
2023-01-02T03:08:05.717Z,964.09
2023-01-02T03:09:06.971Z,964.07
2023-01-02T03:10:05.832Z,964.06
2023-01-02T03:11:05.810Z,964.08
2023-01-02T03:12:05.867Z,964.13
2023-01-02T03:13:05.827Z,964.11
2023-01-02T03:14:05.735Z,964.12
2023-01-02T03:15:05.868Z,964.11
2023-01-02T03:16:05.945Z,964.13
2023-01-02T03:17:05.739Z,964.14
2023-01-02T03:18:05.864Z,964.13
2023-01-02T03:19:05.826Z,964.15
2023-01-02T03:20:07.018Z,964.13
2023-01-02T03:21:05.875Z,964.14
2023-01-02T03:22:05.835Z,964.08
2023-01-02T03:23:05.765Z,964.05
2023-01-02T03:24:05.888Z,964.07
2023-01-02T03:25:05.873Z,964.1
2023-01-02T03:26:05.776Z,964.08
2023-01-02T03:27:05.891Z,964.05
2023-01-02T03:28:05.845Z,964.06
2023-01-02T03:29:05.941Z,964.07
2023-01-02T03:30:05.897Z,964.03
2023-01-02T03:31:05.896Z,963.98
2023-01-02T03:32:05.811Z,963.96
2023-01-02T03:33:05.781Z,963.91
2023-01-02T03:34:05.906Z,963.96
2023-01-02T03:35:05.783Z,963.99
2023-01-02T03:36:05.892Z,964.03
2023-01-02T03:37:05.858Z,964.01
2023-01-02T03:38:07.099Z,964
2023-01-02T03:39:05.796Z,964.08
2023-01-02T03:41:05.872Z,964.12
2023-01-02T03:42:05.921Z,964.13
2023-01-02T03:43:05.964Z,964.12
2023-01-02T03:45:05.965Z,964.11
2023-01-02T03:46:05.902Z,964.09
2023-01-02T03:47:05.823Z,964.06
2023-01-02T03:48:05.870Z,964.08
2023-01-02T03:49:05.981Z,964.05
2023-01-02T03:50:05.967Z,964.08
2023-01-02T03:51:05.914Z,964.04
2023-01-02T03:52:06.009Z,964.07
2023-01-02T03:53:05.975Z,964.06
2023-01-02T03:54:05.835Z,963.97
2023-01-02T03:55:05.848Z,963.99
2023-01-02T03:56:05.865Z,963.96
2023-01-02T03:58:06.009Z,963.97
2023-01-02T03:59:05.986Z,964.05
2023-01-02T04:00:05.924Z,964.01
2023-01-02T04:01:05.997Z,963.98
2023-01-02T04:02:06.100Z,963.95
2023-01-02T04:03:05.884Z,963.94
2023-01-02T04:04:05.854Z,963.98
2023-01-02T04:05:05.967Z,963.94
2023-01-02T04:06:05.885Z,963.91
2023-01-02T04:07:05.998Z,963.93
2023-01-02T04:09:06.008Z,963.89
2023-01-02T04:11:05.906Z,963.87
2023-01-02T04:12:05.884Z,963.85
2023-01-02T04:13:05.901Z,963.81
2023-01-02T04:14:05.880Z,963.8
2023-01-02T04:15:07.313Z,963.81
2023-01-02T04:17:05.883Z,963.8
2023-01-02T04:18:07.297Z,963.81
2023-01-02T04:19:06.015Z,963.83
2023-01-02T04:20:05.903Z,963.86
2023-01-02T04:21:05.966Z,963.85
2023-01-02T04:23:06.005Z,963.84
2023-01-02T04:24:07.335Z,963.82
2023-01-02T04:25:05.907Z,963.84
2023-01-02T04:26:05.998Z,963.83
2023-01-02T04:27:05.910Z,963.8
2023-01-02T04:29:06.011Z,963.82
2023-01-02T04:31:06.046Z,963.81
2023-01-02T04:35:06.092Z,963.84
2023-01-02T04:36:05.986Z,963.83
2023-01-02T04:37:06.044Z,963.81
2023-01-02T04:39:06.162Z,963.76
2023-01-02T04:40:06.054Z,963.77
2023-01-02T04:41:06.009Z,963.79
2023-01-02T04:42:05.939Z,963.76
2023-01-02T04:43:06.070Z,963.77
2023-01-02T04:44:06.028Z,963.74
2023-01-02T04:45:06.093Z,963.75
2023-01-02T04:46:05.998Z,963.78
2023-01-02T04:47:06.119Z,963.7
2023-01-02T04:48:06.091Z,963.67
2023-01-02T04:49:06.066Z,963.61
2023-01-02T04:50:06.031Z,963.84
2023-01-02T04:51:05.990Z,963.87
2023-01-02T04:52:06.228Z,963.85
2023-01-02T04:53:06.134Z,963.88
2023-01-02T04:54:05.931Z,963.9
2023-01-02T04:55:05.977Z,963.91
2023-01-02T04:56:06.137Z,963.92
2023-01-02T04:57:05.992Z,963.95
2023-01-02T04:58:06.003Z,963.92
2023-01-02T04:59:05.987Z,964
2023-01-02T05:00:06.001Z,963.97
2023-01-02T05:01:05.990Z,963.96
2023-01-02T05:03:06.015Z,964
2023-01-02T05:04:06.024Z,963.99
2023-01-02T05:05:06.029Z,963.97
2023-01-02T05:06:06.245Z,963.95
2023-01-02T05:07:06.008Z,963.97
2023-01-02T05:08:09.364Z,963.93
2023-01-02T05:09:06.125Z,963.86
2023-01-02T05:10:06.074Z,963.83
2023-01-02T05:11:06.150Z,963.87
2023-01-02T05:12:06.121Z,963.84
2023-01-02T05:13:06.055Z,963.92
2023-01-02T05:15:06.186Z,963.93
2023-01-02T05:17:06.042Z,963.95
2023-01-02T05:18:06.125Z,964.02
2023-01-02T05:20:06.159Z,964
2023-01-02T05:21:06.168Z,964.04
2023-01-02T05:22:06.032Z,964
2023-01-02T05:23:06.164Z,964.02
2023-01-02T05:24:06.137Z,964.03
2023-01-02T05:25:06.046Z,963.99
2023-01-02T05:26:06.058Z,963.95
2023-01-02T05:28:06.061Z,963.94
2023-01-02T05:29:06.058Z,963.91
2023-01-02T05:30:06.166Z,963.99
2023-01-02T05:31:06.247Z,963.98
2023-01-02T05:33:06.069Z,963.97
2023-01-02T05:34:06.078Z,963.98
2023-01-02T05:35:06.185Z,963.99
2023-01-02T05:37:06.230Z,964
2023-01-02T05:38:06.187Z,964.01
2023-01-02T05:39:06.110Z,964
2023-01-02T05:42:06.199Z,964.03
2023-01-02T05:43:06.183Z,964.02
2023-01-02T05:45:06.094Z,964.06
2023-01-02T05:46:06.123Z,964.02
2023-01-02T05:47:06.113Z,964.03
2023-01-02T05:48:06.109Z,964
2023-01-02T05:49:07.212Z,964.04
2023-01-02T05:50:06.123Z,964
2023-01-02T05:51:06.167Z,964.01
2023-01-02T05:52:06.242Z,963.98
2023-01-02T05:53:06.112Z,963.96
2023-01-02T05:55:06.259Z,963.93
2023-01-02T05:56:06.120Z,963.89
2023-01-02T05:57:06.292Z,963.86
2023-01-02T05:58:06.133Z,963.84
2023-01-02T05:59:06.232Z,963.87
2023-01-02T06:00:06.152Z,963.89
2023-01-02T06:02:06.345Z,963.9
2023-01-02T06:03:06.187Z,963.93
2023-01-02T06:04:06.164Z,963.92
2023-01-02T06:05:06.233Z,963.89
2023-01-02T06:06:06.141Z,963.84
2023-01-02T06:07:06.263Z,963.9
2023-01-02T06:08:06.142Z,963.94
2023-01-02T06:09:06.167Z,964
2023-01-02T06:10:06.286Z,963.97
2023-01-02T06:11:06.241Z,964.01
2023-01-02T06:13:06.377Z,964.06
2023-01-02T06:14:06.183Z,964.04
2023-01-02T06:15:06.201Z,964.07
2023-01-02T06:16:06.287Z,964.04
2023-01-02T06:17:06.247Z,964.08
2023-01-02T06:18:07.346Z,964.05
2023-01-02T06:20:06.242Z,964.04
2023-01-02T06:21:06.315Z,964.03
2023-01-02T06:22:06.219Z,964.08
2023-01-02T06:23:06.275Z,964.07
2023-01-02T06:24:07.385Z,964.11
2023-01-02T06:25:06.197Z,964.14
2023-01-02T06:26:06.206Z,964.15
2023-01-02T06:27:06.192Z,964.19
2023-01-02T06:28:06.300Z,964.16
2023-01-02T06:29:06.266Z,964.15
2023-01-02T06:30:06.211Z,964.17
2023-01-02T06:31:06.335Z,964.18
2023-01-02T06:34:06.318Z,964.17
2023-01-02T06:35:06.260Z,964.14
2023-01-02T06:36:06.335Z,964.12
2023-01-02T06:38:07.512Z,964.15
2023-01-02T06:39:06.355Z,964.19
2023-01-02T06:40:06.317Z,964.21
2023-01-02T06:41:06.384Z,964.2
2023-01-02T06:42:06.350Z,964.14
2023-01-02T06:43:06.305Z,964.17
2023-01-02T06:44:06.376Z,964.2
2023-01-02T06:45:06.374Z,964.22
2023-01-02T06:46:06.324Z,964.23
2023-01-02T06:47:06.390Z,964.18
2023-01-02T06:48:06.354Z,964.2
2023-01-02T06:49:06.306Z,964.22
2023-01-02T06:50:06.254Z,964.23
2023-01-02T06:51:06.372Z,964.21
2023-01-02T06:52:06.315Z,964.17
2023-01-02T06:53:06.391Z,964.19
2023-01-02T06:54:06.272Z,964.18
2023-01-02T06:55:06.267Z,964.2
2023-01-02T06:56:06.269Z,964.23
2023-01-02T06:57:06.352Z,964.24
2023-01-02T06:59:07.759Z,964.25
2023-01-02T07:00:06.399Z,964.32
2023-01-02T07:01:06.308Z,964.33
2023-01-02T07:02:06.516Z,964.32
2023-01-02T07:03:06.375Z,964.3
2023-01-02T07:05:06.452Z,964.34
2023-01-02T07:06:06.282Z,964.37
2023-01-02T07:07:06.452Z,964.41
2023-01-02T07:08:06.287Z,964.4
2023-01-02T07:09:06.380Z,964.42
2023-01-02T07:10:06.443Z,964.37
2023-01-02T07:11:06.309Z,964.35
2023-01-02T07:12:06.375Z,964.36
2023-01-02T07:13:07.622Z,964.4
2023-01-02T07:14:06.442Z,964.39
2023-01-02T07:15:06.328Z,964.47
2023-01-02T07:16:06.397Z,964.43
2023-01-02T07:17:06.452Z,964.46
2023-01-02T07:18:06.385Z,964.49
2023-01-02T07:19:07.630Z,964.53
2023-01-02T07:20:06.423Z,964.55
2023-01-02T07:21:06.394Z,964.5
2023-01-02T07:22:06.461Z,964.51
2023-01-02T07:23:06.432Z,964.49
2023-01-02T07:24:06.401Z,964.46
2023-01-02T07:25:06.328Z,964.49
2023-01-02T07:26:06.440Z,964.47
2023-01-02T07:27:06.340Z,964.5
2023-01-02T07:28:06.469Z,964.47
2023-01-02T07:29:06.439Z,964.44
2023-01-02T07:30:06.407Z,964.48
2023-01-02T07:31:06.369Z,964.5
2023-01-02T07:32:06.558Z,964.49
2023-01-02T07:33:06.514Z,964.5
2023-01-02T07:34:06.512Z,964.52
2023-01-02T07:36:06.357Z,964.48
2023-01-02T07:37:06.476Z,964.47
2023-01-02T07:38:06.444Z,964.48
2023-01-02T07:39:06.367Z,964.51
2023-01-02T07:40:06.356Z,964.49
2023-01-02T07:41:06.456Z,964.51
2023-01-02T07:42:06.374Z,964.49
2023-01-02T07:43:06.489Z,964.51
2023-01-02T07:45:06.610Z,964.55
2023-01-02T07:47:06.488Z,964.58
2023-01-02T07:48:06.384Z,964.55
2023-01-02T07:49:06.495Z,964.58
2023-01-02T07:50:06.455Z,964.6
2023-01-02T07:51:06.524Z,964.62
2023-01-02T07:52:06.539Z,964.57
2023-01-02T07:53:06.508Z,964.62
2023-01-02T07:54:06.437Z,964.63
2023-01-02T07:56:06.484Z,964.64
2023-01-02T07:58:06.523Z,964.65
2023-01-02T08:00:06.397Z,964.68
2023-01-02T08:01:06.665Z,964.72
2023-01-02T08:02:06.585Z,964.7
2023-01-02T08:03:06.556Z,964.73
2023-01-02T08:04:06.559Z,964.72
2023-01-02T08:05:06.481Z,964.75
2023-01-02T08:06:06.451Z,964.77
2023-01-02T08:07:06.521Z,964.74
2023-01-02T08:08:06.496Z,964.81
2023-01-02T08:09:06.439Z,964.79
2023-01-02T08:10:06.551Z,964.82
2023-01-02T08:11:06.441Z,964.83
2023-01-02T08:12:06.559Z,964.89
2023-01-02T08:13:06.458Z,964.92
2023-01-02T08:14:06.490Z,964.9
2023-01-02T08:15:06.469Z,964.93
2023-01-02T08:16:06.531Z,964.92
2023-01-02T08:17:06.529Z,964.91
2023-01-02T08:18:06.568Z,964.92
2023-01-02T08:20:08.389Z,964.9
2023-01-02T08:21:06.781Z,964.92
2023-01-02T08:22:06.484Z,964.89
2023-01-02T08:23:07.446Z,964.95
2023-01-02T08:25:06.544Z,964.98
2023-01-02T08:26:06.494Z,965
2023-01-02T08:27:06.586Z,965.01
2023-01-02T08:28:06.539Z,965.04
2023-01-02T08:29:06.480Z,965.03
2023-01-02T08:30:06.587Z,965.02
2023-01-02T08:32:06.609Z,965.03
2023-01-02T08:33:06.593Z,965.02
2023-01-02T08:34:06.577Z,965.07
2023-01-02T08:36:06.631Z,965.02
2023-01-02T08:37:06.681Z,965.05
2023-01-02T08:38:06.529Z,965.04
2023-01-02T08:39:06.603Z,965.07
2023-01-02T08:40:06.567Z,965.04
2023-01-02T08:41:06.637Z,965.05
2023-01-02T08:42:06.592Z,965.1
2023-01-02T08:43:06.673Z,965.06
2023-01-02T08:44:06.661Z,965.1
2023-01-02T08:45:06.592Z,965.05
2023-01-02T08:46:06.768Z,965.11
2023-01-02T08:47:06.556Z,965.1
2023-01-02T08:48:20.053Z,965.08
2023-01-02T08:49:06.578Z,965.13
2023-01-02T08:50:06.662Z,965.15
2023-01-02T08:51:06.615Z,965.18
2023-01-02T08:52:06.577Z,965.19
2023-01-02T08:53:10.824Z,965.2
2023-01-02T08:54:06.535Z,965.22
2023-01-02T08:55:06.573Z,965.21
2023-01-02T08:56:06.666Z,965.22
2023-01-02T08:57:06.735Z,965.21
2023-01-02T08:59:06.626Z,965.17
2023-01-02T09:00:06.552Z,965.23
2023-01-02T09:01:06.605Z,965.27
2023-01-02T09:02:06.799Z,965.25
2023-01-02T09:04:11.819Z,965.23
2023-01-02T09:05:06.594Z,965.32
2023-01-02T09:06:06.645Z,965.34
2023-01-02T09:07:06.701Z,965.32
2023-01-02T09:09:11.328Z,965.36
2023-01-02T09:10:06.716Z,965.35
2023-01-02T09:11:06.672Z,965.38
2023-01-02T09:12:06.578Z,965.43
2023-01-02T09:15:06.660Z,965.44
2023-01-02T09:16:07.864Z,965.45
2023-01-02T09:17:06.689Z,965.5
2023-01-02T09:18:06.649Z,965.53
2023-01-02T09:19:06.714Z,965.48
2023-01-02T09:20:06.673Z,965.5
2023-01-02T09:22:06.728Z,965.53
2023-01-02T09:23:06.623Z,965.5
2023-01-02T09:24:06.760Z,965.53
2023-01-02T09:25:06.622Z,965.55
2023-01-02T09:26:06.680Z,965.56
2023-01-02T09:27:06.616Z,965.58
2023-01-02T09:28:06.732Z,965.62
2023-01-02T09:29:06.647Z,965.61
2023-01-02T09:30:06.762Z,965.64
2023-01-02T09:32:06.738Z,965.65
2023-01-02T09:33:07.805Z,965.68
2023-01-02T09:34:06.627Z,965.72
2023-01-02T09:35:06.715Z,965.73
2023-01-02T09:36:07.831Z,965.71
2023-01-02T09:37:06.653Z,965.69
2023-01-02T09:38:06.667Z,965.63
2023-01-02T09:39:06.641Z,965.68
2023-01-02T09:40:06.646Z,965.71
2023-01-02T09:41:06.655Z,965.75
2023-01-02T09:42:06.786Z,965.77
2023-01-02T09:43:06.664Z,965.75
2023-01-02T09:44:06.725Z,965.76
2023-01-02T09:45:08.966Z,965.73
2023-01-02T09:46:06.718Z,965.78
2023-01-02T09:47:06.735Z,965.79
2023-01-02T09:48:06.662Z,965.78
2023-01-02T09:49:06.752Z,965.85
2023-01-02T09:50:06.673Z,965.82
2023-01-02T09:52:06.963Z,965.79
2023-01-02T09:53:07.912Z,965.81
2023-01-02T09:54:06.676Z,965.82
2023-01-02T09:55:06.764Z,965.84
2023-01-02T09:56:06.685Z,965.8
2023-01-02T09:57:06.690Z,965.83
2023-01-02T09:58:06.677Z,965.81
2023-01-02T09:59:06.836Z,965.82
2023-01-02T10:00:06.723Z,965.81
2023-01-02T10:01:06.772Z,965.82
2023-01-02T10:02:06.847Z,965.83
2023-01-02T10:03:08.460Z,965.82
2023-01-02T10:04:06.864Z,965.87
2023-01-02T10:06:06.710Z,965.88
2023-01-02T10:07:06.781Z,965.84
2023-01-02T10:08:06.725Z,965.85
2023-01-02T10:09:06.716Z,965.89
2023-01-02T10:10:06.714Z,965.85
2023-01-02T10:11:06.860Z,965.92
2023-01-02T10:12:06.714Z,965.87
2023-01-02T10:13:06.787Z,965.88
2023-01-02T10:14:20.449Z,965.9
2023-01-02T10:15:06.855Z,965.96
2023-01-02T10:16:06.846Z,965.94
2023-01-02T10:17:06.864Z,965.9
2023-01-02T10:18:06.820Z,965.93
2023-01-02T10:19:06.801Z,965.89
2023-01-02T10:20:06.862Z,965.94
2023-01-02T10:21:06.748Z,966
2023-01-02T10:22:06.805Z,966.02
2023-01-02T10:23:06.771Z,966.04
2023-01-02T10:24:06.864Z,965.99
2023-01-02T10:25:11.097Z,966.01
2023-01-02T10:26:06.750Z,966.02
2023-01-02T10:27:06.834Z,965.99
2023-01-02T10:28:06.928Z,966
2023-01-02T10:29:06.746Z,966.02
2023-01-02T10:30:06.856Z,966.01
2023-01-02T10:31:07.712Z,965.95
2023-01-02T10:32:06.888Z,965.98
2023-01-02T10:33:06.849Z,965.93
2023-01-02T10:34:06.786Z,965.91
2023-01-02T10:36:06.849Z,965.85
2023-01-02T10:37:08.166Z,965.81
2023-01-02T10:38:06.911Z,965.79
2023-01-02T10:39:06.785Z,965.76
2023-01-02T10:41:06.899Z,965.78
2023-01-02T10:42:06.791Z,965.75
2023-01-02T10:43:08.196Z,965.74
2023-01-02T10:44:06.896Z,965.75
2023-01-02T10:45:06.864Z,965.73
2023-01-02T10:46:06.923Z,965.77
2023-01-02T10:47:06.899Z,965.72
2023-01-02T10:49:08.189Z,965.67
2023-01-02T10:50:06.797Z,965.7
2023-01-02T10:51:06.881Z,965.65
2023-01-02T10:52:06.930Z,965.58
2023-01-02T10:53:06.845Z,965.61
2023-01-02T10:55:07.043Z,965.6
2023-01-02T10:56:06.937Z,965.61
2023-01-02T10:57:06.839Z,965.62
2023-01-02T10:58:06.955Z,965.63
2023-01-02T11:00:06.840Z,965.67
2023-01-02T11:01:07.005Z,965.64
2023-01-02T11:02:06.996Z,965.66
2023-01-02T11:03:07.005Z,965.69
2023-01-02T11:04:06.970Z,965.66
2023-01-02T11:05:06.852Z,965.67
2023-01-02T11:06:23.488Z,965.65
2023-01-02T11:07:07.204Z,965.68
2023-01-02T11:08:06.849Z,965.67
2023-01-02T11:10:06.968Z,965.73
2023-01-02T11:11:06.859Z,965.75
2023-01-02T11:13:06.974Z,965.74
2023-01-02T11:14:06.867Z,965.71
2023-01-02T11:15:07.847Z,965.7
2023-01-02T11:16:06.978Z,965.71
2023-01-02T11:17:06.950Z,965.7
2023-01-02T11:19:07.103Z,965.71
2023-01-02T11:22:07.011Z,965.69
2023-01-02T11:23:07.084Z,965.7
2023-01-02T11:24:07.036Z,965.71
2023-01-02T11:25:06.903Z,965.7
2023-01-02T11:26:06.956Z,965.69
2023-01-02T11:27:07.026Z,965.71
2023-01-02T11:28:07.010Z,965.76
2023-01-02T11:29:07.075Z,965.7
2023-01-02T11:31:06.956Z,965.71
2023-01-02T11:32:07.161Z,965.74
2023-01-02T11:33:07.039Z,965.76
2023-01-02T11:34:07.001Z,965.72
2023-01-02T11:36:06.925Z,965.79
2023-01-02T11:37:07.000Z,965.72
2023-01-02T11:38:07.097Z,965.69
2023-01-02T11:39:07.044Z,965.66
2023-01-02T11:40:07.012Z,965.67
2023-01-02T11:41:07.075Z,965.69
2023-01-02T11:42:07.033Z,965.63
2023-01-02T11:43:07.006Z,965.65
2023-01-02T11:44:06.932Z,965.62
2023-01-02T11:45:06.959Z,965.6
2023-01-02T11:46:07.037Z,965.57
2023-01-02T11:47:06.943Z,965.59
2023-01-02T11:48:07.050Z,965.61
2023-01-02T11:49:07.013Z,965.57
2023-01-02T11:51:07.138Z,965.6
2023-01-02T11:52:06.987Z,965.63
2023-01-02T11:54:06.984Z,965.59
2023-01-02T11:55:06.969Z,965.63
2023-01-02T11:56:08.105Z,965.61
2023-01-02T11:57:07.076Z,965.66
2023-01-02T11:58:06.966Z,965.67
2023-01-02T11:59:08.098Z,965.68
2023-01-02T12:00:06.998Z,965.67
2023-01-02T12:01:06.980Z,965.68
2023-01-02T12:02:07.087Z,965.8
2023-01-02T12:03:07.066Z,965.81
2023-01-02T12:04:06.999Z,965.82
2023-01-02T12:05:06.983Z,965.8
2023-01-02T12:07:07.017Z,965.77
2023-01-02T12:08:06.999Z,965.76
2023-01-02T12:09:07.255Z,965.82
2023-01-02T12:11:07.118Z,965.84
2023-01-02T12:12:07.020Z,965.82
2023-01-02T12:14:11.273Z,965.78
2023-01-02T12:15:07.023Z,965.81
2023-01-02T12:16:08.323Z,965.84
2023-01-02T12:17:08.000Z,965.81
2023-01-02T12:19:07.053Z,965.83
2023-01-02T12:20:07.173Z,965.82
2023-01-02T12:21:07.090Z,965.84
2023-01-02T12:22:07.199Z,965.83
2023-01-02T12:23:07.035Z,965.86
2023-01-02T12:24:07.216Z,965.9
2023-01-02T12:25:07.033Z,965.89
2023-01-02T12:26:09.269Z,965.91
2023-01-02T12:27:07.124Z,965.92
2023-01-02T12:28:07.101Z,965.93
2023-01-02T12:30:07.064Z,965.99
2023-01-02T12:31:07.064Z,966.01
2023-01-02T12:32:07.253Z,966.02
2023-01-02T12:33:07.173Z,966.03
2023-01-02T12:34:07.076Z,966.05
2023-01-02T12:36:08.392Z,966.04
2023-01-02T12:37:07.187Z,966.05
2023-01-02T12:38:07.052Z,966.04
2023-01-02T12:39:07.233Z,966.07
2023-01-02T12:40:07.183Z,966.05
2023-01-02T12:41:07.159Z,966.08
2023-01-02T12:42:08.342Z,966.09
2023-01-02T12:43:07.093Z,966.11
2023-01-02T12:44:07.091Z,966.09
2023-01-02T12:45:07.082Z,966.13
2023-01-02T12:46:07.254Z,966.14
2023-01-02T12:47:07.160Z,966.06
2023-01-02T12:48:07.142Z,966.07
2023-01-02T12:49:07.094Z,966.08
2023-01-02T12:50:07.178Z,966.1
2023-01-02T12:51:07.140Z,966.08
2023-01-02T12:52:07.110Z,966.07
2023-01-02T12:54:18.577Z,966.08
2023-01-02T12:55:07.214Z,966.09
2023-01-02T12:56:07.103Z,966.02
2023-01-02T12:57:08.443Z,966.06
2023-01-02T12:58:07.220Z,966.04
2023-01-02T12:59:07.181Z,966.07
2023-01-02T13:00:07.135Z,966.1
2023-01-02T13:01:07.357Z,966.09
2023-01-02T13:02:07.346Z,966.08
2023-01-02T13:04:07.277Z,966.06
2023-01-02T13:05:07.260Z,966
2023-01-02T13:06:07.284Z,966.01
2023-01-02T13:07:07.438Z,966.06
2023-01-02T13:08:07.150Z,966.07
2023-01-02T13:10:07.236Z,966.08
2023-01-02T13:11:07.209Z,966.1
2023-01-02T13:12:07.165Z,966.14
2023-01-02T13:13:07.235Z,966.08
2023-01-02T13:14:07.305Z,966.09
2023-01-02T13:15:07.157Z,966.08
2023-01-02T13:16:14.984Z,966.04
2023-01-02T13:17:07.386Z,966.01
2023-01-02T13:18:07.175Z,965.99
2023-01-02T13:19:07.278Z,966.02
2023-01-02T13:20:07.168Z,965.99
2023-01-02T13:21:07.283Z,966.04
2023-01-02T13:22:07.246Z,966.01
2023-01-02T13:23:09.580Z,966.04
2023-01-02T13:24:07.275Z,965.97
2023-01-02T13:25:07.245Z,965.99
2023-01-02T13:26:07.320Z,965.94
2023-01-02T13:27:07.290Z,965.92
2023-01-02T13:28:07.258Z,965.93
2023-01-02T13:29:07.214Z,965.89
2023-01-02T13:30:07.275Z,965.93
2023-01-02T13:31:45.159Z,965.94
2023-01-02T13:32:08.794Z,965.9
2023-01-02T13:33:07.236Z,965.88
2023-01-02T13:34:07.291Z,965.91
2023-01-02T13:35:07.229Z,965.86
2023-01-02T13:36:07.210Z,965.8
2023-01-02T13:37:07.227Z,965.79
2023-01-02T13:38:08.190Z,965.8
2023-01-02T13:39:07.296Z,965.81
2023-01-02T13:40:07.261Z,965.82
2023-01-02T13:41:07.215Z,965.86
2023-01-02T13:42:09.428Z,965.89
2023-01-02T13:43:07.432Z,965.87
2023-01-02T13:44:07.344Z,965.85
2023-01-02T13:45:07.303Z,965.82
2023-01-02T13:46:07.312Z,965.85
2023-01-02T13:47:07.336Z,965.82
2023-01-02T13:49:07.345Z,965.79
2023-01-02T13:50:07.246Z,965.84
2023-01-02T13:51:07.254Z,965.87
2023-01-02T13:52:07.476Z,965.86
2023-01-02T13:53:07.362Z,965.85
2023-01-02T13:54:07.310Z,965.88
2023-01-02T13:55:07.387Z,965.95
2023-01-02T13:56:07.359Z,965.91
2023-01-02T13:58:08.389Z,965.88
2023-01-02T13:59:07.375Z,965.91
2023-01-02T14:00:07.258Z,965.9
2023-01-02T14:01:07.402Z,965.92
2023-01-02T14:02:07.369Z,965.93
2023-01-02T14:04:07.303Z,965.95
2023-01-02T14:05:07.369Z,966
2023-01-02T14:07:07.407Z,966.02
2023-01-02T14:08:07.285Z,965.99
2023-01-02T14:09:07.289Z,966.02
2023-01-02T14:10:07.407Z,966.01
2023-01-02T14:13:07.488Z,966.03
2023-01-02T14:14:07.392Z,966.08
2023-01-02T14:15:07.348Z,966.1
2023-01-02T14:17:07.391Z,966.14
2023-01-02T14:18:07.373Z,966.18